Time;durP1;ratioP1;P1;durP2;ratioP2;P2;SDS_P1;SDS_P2;PMS_P1;PMS_P2;Temp;Humidity;BMP_temperature;BMP_pressure;BME280_temperature;BME280_humidity;BME280_pressure;Samples;Min_cycle;Max_cycle;Signal;HPM_P1;HPM_P2
2021/10/02 00:37:28;;;;;;;4.65;3.28;;;;;;;13.81;100.00;100352.53;4898567;29;20064;-86
2021/10/02 00:45:26;;;;;;;6.35;3.35;;;;;;;13.71;100.00;100349.63;4897365;29;20519;-86
2021/10/02 00:47:55;;;;;;;4.72;3.35;;;;;;;13.72;100.00;100343.44;4897916;29;20464;-85
2021/10/02 00:50:22;;;;;;;11.15;3.20;;;;;;;13.70;100.00;100342.72;4900866;29;20076;-86
2021/10/02 00:52:50;;;;;;;3.50;3.20;;;;;;;13.71;100.00;100344.38;4899721;29;20092;-84
2021/10/02 00:55:17;;;;;;;6.55;3.05;;;;;;;13.76;100.00;100341.50;4900729;29;20100;-84
2021/10/02 00:57:43;;;;;;;4.30;3.50;;;;;;;13.84;100.00;100333.97;4901165;29;20041;-84
2021/10/02 01:00:11;;;;;;;5.68;3.03;;;;;;;13.93;100.00;100338.66;4903652;29;20044;-84
2021/10/02 01:02:38;;;;;;;8.07;3.33;;;;;;;13.88;100.00;100340.72;4902234;29;20071;-87
2021/10/02 01:05:32;;;;;;;6.22;3.28;;;;;;;13.92;100.00;100339.59;4900612;29;20060;-86
2021/10/02 01:08:31;;;;;;;5.50;3.58;;;;;;;13.97;100.00;100334.91;4899678;29;20052;-84
2021/10/02 01:11:20;;;;;;;5.75;3.83;;;;;;;13.94;100.00;100337.72;4901192;29;20116;-85
2021/10/02 01:14:16;;;;;;;7.05;3.65;;;;;;;13.86;100.00;100337.38;4899521;29;20408;-84
2021/10/02 01:16:47;;;;;;;7.18;3.53;;;;;;;13.85;100.00;100333.06;4900437;29;20048;-85
2021/10/02 01:19:49;;;;;;;5.35;3.45;;;;;;;13.76;100.00;100323.16;4914578;29;20097;-85
2021/10/02 01:22:40;;;;;;;4.13;3.20;;;;;;;13.76;100.00;100329.22;4900187;29;20051;-85
2021/10/02 01:25:34;;;;;;;3.65;3.33;;;;;;;13.77;100.00;100328.28;4899971;29;20056;-85
2021/10/02 01:28:08;;;;;;;5.80;3.40;;;;;;;13.77;100.00;100323.03;4900120;29;20474;-86
2021/10/02 01:33:51;;;;;;;3.58;2.95;;;;;;;13.66;100.00;100320.25;4900357;29;20044;-86
2021/10/02 01:47:40;;;;;;;12.45;4.78;;;;;;;13.77;100.00;100306.50;4899703;29;20061;-86
2021/10/02 01:50:08;;;;;;;3.60;3.30;;;;;;;13.72;100.00;100303.31;4900221;29;20104;-87
2021/10/02 01:52:39;;;;;;;4.47;3.17;;;;;;;13.67;100.00;100295.72;4897775;29;20045;-85
2021/10/02 01:55:09;;;;;;;5.10;3.35;;;;;;;13.66;100.00;100303.69;4882735;29;20051;-88
2021/10/02 01:57:43;;;;;;;5.70;3.50;;;;;;;13.48;100.00;100298.66;4894167;29;20047;-85
2021/10/02 02:00:12;;;;;;;5.78;3.83;;;;;;;13.38;100.00;100294.09;4898399;29;20058;-86
2021/10/02 02:02:45;;;;;;;5.47;3.60;;;;;;;13.43;100.00;100285.00;4894633;29;20469;-85
2021/10/02 02:05:13;;;;;;;4.93;4.40;;;;;;;13.50;100.00;100283.69;4897114;29;20072;-83
2021/10/02 02:07:44;;;;;;;8.13;4.72;;;;;;;13.62;100.00;100290.78;4899092;29;20059;-82
2021/10/02 02:10:12;;;;;;;8.52;5.25;;;;;;;13.65;100.00;100281.06;4898987;29;20396;-83
2021/10/02 02:12:41;;;;;;;10.02;5.80;;;;;;;13.66;100.00;100269.66;4892723;29;20096;-84
2021/10/02 02:15:11;;;;;;;9.57;5.95;;;;;;;13.70;100.00;100277.22;4894919;29;20040;-84
2021/10/02 02:17:41;;;;;;;6.72;4.70;;;;;;;13.72;100.00;100271.88;4898805;29;20199;-84
2021/10/02 02:20:10;;;;;;;6.80;4.45;;;;;;;13.75;100.00;100271.69;4891218;29;20090;-86
2021/10/02 02:22:37;;;;;;;10.20;3.97;;;;;;;13.66;100.00;100267.03;4899128;29;20044;-85
2021/10/02 02:25:05;;;;;;;4.00;3.60;;;;;;;13.71;100.00;100270.19;4898552;29;20045;-85
2021/10/02 02:27:34;;;;;;;7.97;4.32;;;;;;;13.78;100.00;100261.00;4896871;29;20045;-85
2021/10/02 02:30:03;;;;;;;4.05;3.63;;;;;;;13.78;100.00;100261.84;4898772;29;20045;-85
2021/10/02 02:32:30;;;;;;;4.78;3.40;;;;;;;13.86;100.00;100261.38;4898463;29;20044;-85
2021/10/02 02:34:57;;;;;;;4.53;3.58;;;;;;;13.89;100.00;100269.03;4898514;29;20108;-84
2021/10/02 02:37:24;;;;;;;6.28;3.70;;;;;;;13.95;100.00;100266.00;4898361;29;20530;-84
2021/10/02 02:39:51;;;;;;;6.03;4.10;;;;;;;13.96;100.00;100267.72;4898802;29;20527;-86
2021/10/02 02:42:18;;;;;;;4.10;3.50;;;;;;;13.92;100.00;100268.00;4898242;29;20085;-85
2021/10/02 02:44:46;;;;;;;4.45;3.88;;;;;;;13.93;100.00;100264.44;4898803;29;20116;-85
2021/10/02 02:47:19;;;;;;;5.63;5.07;;;;;;;13.81;100.00;100260.81;4898999;29;20057;-85
2021/10/02 02:49:59;;;;;;;5.90;5.05;;;;;;;13.45;100.00;100263.97;4898225;29;20503;-85
2021/10/02 02:52:49;;;;;;;6.13;4.90;;;;;;;13.43;100.00;100266.69;4898911;29;20044;-85
2021/10/02 02:55:20;;;;;;;7.40;5.45;;;;;;;13.53;100.00;100265.19;4898272;29;20095;-84
2021/10/02 02:57:54;;;;;;;7.47;6.68;;;;;;;13.59;100.00;100261.34;4898887;29;20052;-84
2021/10/02 03:00:22;;;;;;;8.18;5.93;;;;;;;13.60;100.00;100258.59;4883251;29;20052;-84
2021/10/02 03:02:59;;;;;;;6.38;4.93;;;;;;;13.52;100.00;100266.09;4898344;29;20119;-83
2021/10/02 03:05:28;;;;;;;6.60;3.60;;;;;;;13.45;100.00;100263.97;4897502;29;20072;-83
2021/10/02 03:08:05;;;;;;;6.72;4.22;;;;;;;13.46;100.00;100256.00;4898330;29;20543;-82
2021/10/02 03:10:33;;;;;;;6.38;4.43;;;;;;;13.57;100.00;100252.72;4898440;29;20111;-82
2021/10/02 03:13:04;;;;;;;5.40;4.63;;;;;;;13.65;100.00;100252.25;4898871;29;20052;-83
2021/10/02 03:15:33;;;;;;;6.03;4.78;;;;;;;13.59;100.00;100250.84;4897714;29;20076;-84
2021/10/02 03:18:01;;;;;;;5.75;5.13;;;;;;;13.65;100.00;100257.50;4898420;29;20480;-83
2021/10/02 03:20:29;;;;;;;5.35;4.72;;;;;;;13.68;100.00;100252.03;4913371;29;20127;-85
2021/10/02 03:22:56;;;;;;;4.90;4.38;;;;;;;13.76;100.00;100255.88;4899071;29;20140;-85
2021/10/02 03:25:26;;;;;;;7.55;4.68;;;;;;;13.74;100.00;100254.28;4900421;29;20045;-85
2021/10/02 03:27:56;;;;;;;7.40;3.92;;;;;;;13.67;100.00;100253.81;4906639;29;20357;-85
2021/10/02 03:30:23;;;;;;;6.25;4.05;;;;;;;13.67;100.00;100253.81;4907699;29;20044;-85
2021/10/02 03:32:52;;;;;;;6.20;3.80;;;;;;;13.67;100.00;100253.81;4907838;29;20045;-85
2021/10/02 03:35:22;;;;;;;7.28;5.32;;;;;;;13.68;100.00;100252.88;4902902;29;20049;-83
2021/10/02 03:37:50;;;;;;;6.60;4.38;;;;;;;13.61;100.00;100249.81;4900685;29;20695;-83
2021/10/02 03:40:18;;;;;;;9.75;4.40;;;;;;;13.51;100.00;100245.25;4902105;29;20036;-84
2021/10/02 03:42:46;;;;;;;5.13;4.15;;;;;;;13.36;100.00;100247.03;4907463;29;20045;-81
2021/10/02 03:45:15;;;;;;;8.38;4.60;;;;;;;13.46;100.00;100239.44;4897968;29;20048;-83
2021/10/02 03:47:44;;;;;;;5.50;4.97;;;;;;;13.49;100.00;100242.72;4898360;29;20045;-83
2021/10/02 03:50:11;;;;;;;6.53;4.25;;;;;;;13.51;100.00;100233.00;4897786;29;20092;-83
2021/10/02 03:52:39;;;;;;;7.18;5.03;;;;;;;13.53;100.00;100232.88;4898072;29;20053;-83
2021/10/02 03:55:09;;;;;;;5.65;4.60;;;;;;;13.51;100.00;100237.38;4897671;29;20079;-85
2021/10/02 03:57:36;;;;;;;7.30;4.25;;;;;;;13.47;100.00;100238.50;4897862;29;20425;-84
2021/10/02 04:00:07;;;;;;;7.35;5.03;;;;;;;13.48;100.00;100234.97;4897704;29;20045;-82
2021/10/02 04:02:34;;;;;;;7.93;5.32;;;;;;;13.48;100.00;100237.59;4897483;29;20069;-83
2021/10/02 04:05:01;;;;;;;6.22;4.95;;;;;;;13.46;100.00;100237.66;4897398;29;20492;-82
2021/10/02 04:07:28;;;;;;;10.00;5.45;;;;;;;13.40;100.00;100237.22;4897122;29;20135;-84
2021/10/02 04:09:55;;;;;;;6.50;5.47;;;;;;;13.40;100.00;100234.59;4897671;29;20093;-84
2021/10/02 04:12:23;;;;;;;7.97;6.10;;;;;;;13.40;100.00;100235.44;4896963;29;20040;-86
2021/10/02 04:14:50;;;;;;;10.02;5.93;;;;;;;13.35;100.00;100237.50;4898148;29;20048;-85
2021/10/02 04:17:17;;;;;;;9.35;6.22;;;;;;;13.32;100.00;100230.69;4897068;29;20048;-86
2021/10/02 04:19:44;;;;;;;10.20;6.97;;;;;;;13.30;100.00;100235.16;4897719;29;20044;-84
2021/10/02 04:22:12;;;;;;;9.68;8.52;;;;;;;13.30;100.00;100231.69;4898975;29;20049;-85
2021/10/02 04:24:40;;;;;;;8.13;6.50;;;;;;;13.25;100.00;100225.91;4901478;29;20048;-85
2021/10/02 04:27:09;;;;;;;9.65;5.88;;;;;;;13.17;100.00;100228.97;4882732;29;20057;-85
2021/10/02 04:29:36;;;;;;;12.75;7.13;;;;;;;13.16;100.00;100226.44;4887660;29;20092;-83
2021/10/02 04:32:03;;;;;;;11.05;8.48;;;;;;;13.14;100.00;100228.31;4900825;29;20536;-83
2021/10/02 04:34:30;;;;;;;13.13;9.13;;;;;;;13.13;100.00;100229.25;4900741;29;20488;-84
2021/10/02 04:36:57;;;;;;;12.13;10.43;;;;;;;13.08;100.00;100226.91;4900721;29;20041;-83
2021/10/02 04:39:26;;;;;;;12.35;9.95;;;;;;;13.09;100.00;100221.56;4892744;29;20049;-85
2021/10/02 04:41:53;;;;;;;16.88;10.80;;;;;;;13.10;100.00;100227.63;4891245;29;20091;-86
2021/10/02 04:44:21;;;;;;;14.73;9.05;;;;;;;13.08;100.00;100225.13;4900375;29;20456;-85
2021/10/02 04:46:48;;;;;;;16.77;10.82;;;;;;;13.00;100.00;100221.31;4901283;29;20044;-86
2021/10/02 04:49:15;;;;;;;14.82;11.85;;;;;;;12.98;100.00;100221.38;4896567;29;20400;-85
2021/10/02 04:51:42;;;;;;;18.50;14.10;;;;;;;13.01;100.00;100222.97;4900681;29;20055;-82
2021/10/02 04:54:10;;;;;;;20.48;14.40;;;;;;;13.03;100.00;100221.94;4900594;29;20055;-83
2021/10/02 04:56:38;;;;;;;18.25;12.63;;;;;;;13.02;100.00;100222.88;4900501;29;20088;-83
2021/10/02 04:59:05;;;;;;;18.92;13.85;;;;;;;12.98;100.00;100223.16;4899784;29;20047;-83
2021/10/02 05:01:32;;;;;;;16.17;12.80;;;;;;;12.90;100.00;100225.41;4900920;29;20075;-83
2021/10/02 05:04:01;;;;;;;15.55;12.65;;;;;;;12.86;100.00;100224.75;4902311;29;20055;-84
2021/10/02 05:06:28;;;;;;;15.13;12.45;;;;;;;12.87;100.00;100221.19;4900959;29;20475;-84
2021/10/02 05:08:54;;;;;;;22.13;18.20;;;;;;;12.91;100.00;100217.47;4901016;29;20051;-84
2021/10/02 05:11:22;;;;;;;21.20;16.05;;;;;;;13.02;100.00;100225.50;4901049;29;20049;-87
2021/10/02 05:13:49;;;;;;;25.27;18.77;;;;;;;13.01;100.00;100217.75;4900487;29;20508;-83
2021/10/02 05:16:16;;;;;;;20.80;16.38;;;;;;;13.00;100.00;100222.16;4900854;29;20052;-84
2021/10/02 05:18:43;;;;;;;20.98;14.10;;;;;;;12.92;100.00;100224.38;4899682;29;20045;-86
2021/10/02 05:21:10;;;;;;;19.60;12.60;;;;;;;12.93;100.00;100225.19;4900725;29;20045;-83
2021/10/02 05:23:37;;;;;;;17.65;14.25;;;;;;;12.95;100.00;100226.81;4899809;29;20547;-82
2021/10/02 05:26:04;;;;;;;20.65;14.75;;;;;;;12.98;100.00;100237.06;4896237;29;20076;-82
2021/10/02 05:28:31;;;;;;;21.75;15.35;;;;;;;12.96;100.00;100231.09;4891127;29;20527;-80
2021/10/02 05:30:58;;;;;;;20.13;16.08;;;;;;;12.97;100.00;100243.25;4888811;29;20036;-79
2021/10/02 05:33:29;;;;;;;19.75;14.70;;;;;;;12.97;100.00;100247.63;4891595;29;20132;-80
2021/10/02 05:35:55;;;;;;;20.67;14.48;;;;;;;13.04;100.00;100244.56;4894201;29;20130;-82
2021/10/02 05:38:22;;;;;;;20.40;14.40;;;;;;;13.08;100.00;100245.22;4892032;29;20048;-81
2021/10/02 05:40:50;;;;;;;21.52;14.38;;;;;;;13.18;100.00;100242.88;4893777;29;20055;-79
2021/10/02 05:43:17;;;;;;;27.80;15.18;;;;;;;13.28;100.00;100254.53;4894881;29;20052;-83
2021/10/02 05:45:43;;;;;;;21.13;14.23;;;;;;;13.33;100.00;100250.69;4887344;29;20452;-81
2021/10/02 05:48:11;;;;;;;17.15;13.52;;;;;;;13.35;100.00;100250.59;4890422;29;20036;-79
2021/10/02 05:50:39;;;;;;;18.13;14.75;;;;;;;13.39;100.00;100259.09;4890783;29;20053;-80
2021/10/02 05:53:06;;;;;;;20.50;14.48;;;;;;;13.54;100.00;100256.38;4894080;29;20041;-82
2021/10/02 05:55:34;;;;;;;21.50;14.23;;;;;;;13.65;100.00;100260.94;4889450;29;20093;-81
2021/10/02 05:58:01;;;;;;;21.02;15.15;;;;;;;13.69;100.00;100262.44;4891728;29;20120;-83
2021/10/02 06:00:28;;;;;;;18.13;13.45;;;;;;;13.91;100.00;100267.19;4898112;29;20044;-86
2021/10/02 06:02:56;;;;;;;18.42;13.77;;;;;;;13.75;100.00;100261.22;4888954;29;20116;-83
2021/10/02 06:05:27;;;;;;;19.98;13.80;;;;;;;13.70;100.00;100264.13;4892781;29;20132;-85
2021/10/02 06:07:55;;;;;;;16.05;12.73;;;;;;;13.72;100.00;100266.63;4891229;29;20056;-84
2021/10/02 06:10:22;;;;;;;16.85;12.70;;;;;;;13.80;100.00;100267.00;4888542;29;20049;-84
2021/10/02 06:12:52;;;;;;;16.05;12.77;;;;;;;13.91;100.00;100276.81;4892339;29;20069;-83
2021/10/02 06:15:24;;;;;;;16.77;12.98;;;;;;;14.01;100.00;100285.75;4896421;29;20048;-83
2021/10/02 06:17:52;;;;;;;19.42;11.38;;;;;;;14.08;100.00;100285.28;4890820;29;20091;-81
2021/10/02 06:20:19;;;;;;;15.75;12.50;;;;;;;14.35;100.00;100279.19;4895612;29;20551;-82
2021/10/02 06:22:46;;;;;;;17.40;12.25;;;;;;;14.58;100.00;100289.03;4897726;29;20045;-80
2021/10/02 06:25:13;;;;;;;14.90;11.80;;;;;;;14.80;100.00;100293.69;4890213;29;20037;-81
2021/10/02 06:27:40;;;;;;;15.70;11.63;;;;;;;14.97;99.66;100294.34;4888542;29;20040;-80
2021/10/02 06:30:08;;;;;;;15.77;13.30;;;;;;;15.03;99.10;100291.34;4885601;29;20080;-80
2021/10/02 06:32:36;;;;;;;14.02;11.77;;;;;;;15.19;98.50;100298.06;4890855;29;20160;-79
2021/10/02 06:35:04;;;;;;;17.88;13.55;;;;;;;15.27;97.70;100299.31;4891921;29;20420;-80
2021/10/02 06:37:31;;;;;;;19.15;13.85;;;;;;;15.30;97.49;100301.75;4888250;29;20082;-81
2021/10/02 06:39:57;;;;;;;26.20;17.15;;;;;;;15.19;98.37;100305.09;4898376;29;20037;-80
2021/10/02 06:42:24;;;;;;;20.45;15.50;;;;;;;15.30;97.96;100301.75;4883986;29;20052;-83
2021/10/02 06:44:51;;;;;;;23.85;17.25;;;;;;;15.09;99.71;100293.53;4891207;29;20041;-79
2021/10/02 06:47:18;;;;;;;27.48;20.55;;;;;;;14.92;100.00;100290.28;4888698;29;20067;-82
2021/10/02 06:49:44;;;;;;;28.13;20.05;;;;;;;15.01;100.00;100290.59;4888774;29;20052;-84
2021/10/02 06:52:11;;;;;;;26.73;18.95;;;;;;;15.01;99.69;100291.44;4891184;29;20036;-81
2021/10/02 06:54:38;;;;;;;24.92;18.25;;;;;;;15.18;99.22;100288.50;4896014;29;20045;-83
2021/10/02 06:57:07;;;;;;;21.75;18.70;;;;;;;15.25;97.96;100290.72;4898662;29;20048;-82
2021/10/02 06:59:36;;;;;;;26.83;17.50;;;;;;;15.46;96.98;100283.97;4912489;29;20051;-83
2021/10/02 07:02:04;;;;;;;26.67;18.60;;;;;;;15.29;97.82;100285.16;4891923;29;20411;-81
2021/10/02 07:04:31;;;;;;;26.55;19.05;;;;;;;15.43;96.74;100290.28;4893801;29;20052;-79
2021/10/02 07:06:59;;;;;;;28.98;19.40;;;;;;;15.35;99.34;100286.50;4897254;29;20100;-76
2021/10/02 07:09:28;;;;;;;31.23;21.75;;;;;;;15.37;96.93;100284.59;4890962;29;20086;-77
2021/10/02 07:12:00;;;;;;;22.45;18.75;;;;;;;15.28;98.43;100290.50;4886391;29;20041;-78
2021/10/02 07:14:27;;;;;;;29.08;21.60;;;;;;;15.32;97.57;100294.59;4895566;29;20096;-78
2021/10/02 07:16:54;;;;;;;28.98;21.55;;;;;;;15.46;96.97;100291.84;4895808;29;20051;-82
2021/10/02 07:19:21;;;;;;;39.67;25.98;;;;;;;15.27;97.90;100289.66;4891691;29;20052;-82
2021/10/02 07:21:51;;;;;;;39.30;26.80;;;;;;;15.29;97.09;100289.56;4895536;29;20045;-84
2021/10/02 07:24:18;;;;;;;30.48;23.33;;;;;;;15.49;99.50;100281.13;4890025;29;20049;-81
2021/10/02 07:26:45;;;;;;;27.48;19.30;;;;;;;15.46;97.75;100294.50;4887163;29;20041;-92
2021/10/02 07:29:15;;;;;;;24.85;19.30;;;;;;;16.16;93.22;100294.75;4886922;29;20044;-87
2021/10/02 07:31:44;;;;;;;22.00;17.33;;;;;;;16.00;95.10;100280.22;4886363;29;20060;-80
2021/10/02 07:34:11;;;;;;;22.08;17.70;;;;;;;16.05;94.29;100292.06;4883611;29;20041;-84
2021/10/02 07:36:37;;;;;;;20.17;16.35;;;;;;;16.81;91.44;100290.88;4888946;29;20044;-81
2021/10/02 07:39:04;;;;;;;18.83;16.52;;;;;;;16.08;91.85;100288.38;4886501;29;20124;-81
2021/10/02 07:41:39;;;;;;;21.20;17.25;;;;;;;16.39;90.15;100286.97;4890160;29;20040;-83
2021/10/02 07:44:09;;;;;;;23.30;17.58;;;;;;;16.45;90.19;100283.91;4881808;29;20045;-85
2021/10/02 07:46:40;;;;;;;22.23;19.85;;;;;;;15.94;96.31;100284.97;4886924;29;20097;-84
2021/10/02 07:49:09;;;;;;;23.88;19.42;;;;;;;15.69;96.64;100296.38;4889158;29;20049;-86
2021/10/02 07:51:36;;;;;;;30.13;21.05;;;;;;;15.73;96.60;100289.13;4883811;29;20047;-86
2021/10/02 07:54:05;;;;;;;30.77;24.70;;;;;;;15.65;96.68;100296.69;4883146;29;20056;-92
2021/10/02 07:56:36;;;;;;;36.03;28.20;;;;;;;15.76;97.13;100293.28;4883150;29;20088;-89
2021/10/02 07:59:06;;;;;;;35.15;28.25;;;;;;;16.00;94.83;100286.31;4896041;29;20536;-85
2021/10/02 08:01:34;;;;;;;38.08;28.95;;;;;;;16.04;94.79;100281.69;4891517;29;20115;-85
2021/10/02 08:04:09;;;;;;;33.10;27.67;;;;;;;15.99;95.07;100292.53;4890020;29;20071;-85
2021/10/02 08:06:42;;;;;;;31.55;28.17;;;;;;;16.07;93.13;100292.78;4890826;29;20552;-84
2021/10/02 08:09:10;;;;;;;34.83;29.08;;;;;;;15.87;94.43;100290.75;4890552;29;20503;-78
2021/10/02 08:11:43;;;;;;;35.97;27.58;;;;;;;16.26;92.72;100296.75;4891408;29;20040;-80
2021/10/02 08:14:15;;;;;;;32.75;25.98;;;;;;;16.37;91.67;100289.72;4891690;29;20048;-84
2021/10/02 08:16:46;;;;;;;31.13;27.98;;;;;;;16.26;93.07;100287.06;4890041;29;20437;-83
2021/10/02 08:19:18;;;;;;;39.65;31.13;;;;;;;16.35;91.95;100280.25;4891533;29;20486;-82
2021/10/02 08:21:47;;;;;;;37.45;32.05;;;;;;;16.57;90.09;100285.63;4905014;29;20150;-82
2021/10/02 08:24:15;;;;;;;36.47;28.13;;;;;;;16.31;90.80;100284.09;4883819;29;20080;-82
2021/10/02 08:26:45;;;;;;;34.45;27.52;;;;;;;16.20;92.75;100290.97;4893201;29;20041;-82
2021/10/02 08:29:12;;;;;;;38.85;27.65;;;;;;;16.46;91.48;100282.97;4894940;29;20057;-84
2021/10/02 08:31:41;;;;;;;31.63;27.83;;;;;;;16.64;90.73;100281.59;4891922;29;20100;-87
2021/10/02 08:34:25;;;;;;;32.72;27.35;;;;;;;16.67;88.35;100272.59;4900450;29;20176;-91
2021/10/02 08:36:52;;;;;;;30.95;26.67;;;;;;;16.61;88.61;100276.53;4898760;29;20049;-87
2021/10/02 08:39:19;;;;;;;35.80;25.65;;;;;;;16.81;87.39;100261.09;4894301;29;20060;-85
2021/10/02 08:41:48;;;;;;;30.30;25.60;;;;;;;16.65;88.15;100262.19;4893655;29;20489;-85
2021/10/02 08:44:23;;;;;;;25.45;19.65;;;;;;;16.63;86.55;100258.03;4891837;29;20400;-84
2021/10/02 08:46:51;;;;;;;22.63;15.88;;;;;;;16.62;86.11;100259.81;4897980;29;20060;-84
2021/10/02 08:49:44;;;;;;;20.90;16.48;;;;;;;17.02;84.74;100255.03;4888931;29;20053;-84
2021/10/02 08:52:15;;;;;;;28.70;18.17;;;;;;;17.36;82.34;100262.09;4896869;29;20445;-82
2021/10/02 08:54:44;;;;;;;21.60;18.08;;;;;;;17.31;83.63;100264.25;4890828;29;20041;-83
2021/10/02 08:57:26;;;;;;;28.85;22.10;;;;;;;17.62;80.42;100265.34;4900505;29;20071;-82
2021/10/02 08:59:54;;;;;;;36.72;25.38;;;;;;;17.87;79.80;100266.91;4898249;29;20048;-85
2021/10/02 09:02:24;;;;;;;38.70;31.20;;;;;;;17.56;80.89;100269.28;4909043;29;20048;-82
2021/10/02 09:04:53;;;;;;;30.25;26.75;;;;;;;18.08;79.61;100267.81;4899498;29;20075;-86
2021/10/02 09:07:23;;;;;;;37.67;31.70;;;;;;;17.95;79.75;100269.75;4907194;29;20048;-90
2021/10/02 09:09:54;;;;;;;30.13;26.33;;;;;;;18.40;76.85;100264.34;4910695;29;20040;-90
2021/10/02 09:12:27;;;;;;;30.80;26.42;;;;;;;18.49;76.96;100274.16;4916836;29;20033;-84
2021/10/02 09:14:56;;;;;;;35.50;28.10;;;;;;;18.63;76.11;100281.75;4913804;29;20033;-84
2021/10/02 09:17:24;;;;;;;26.48;22.55;;;;;;;18.50;75.32;100276.66;4911492;29;20025;-87
2021/10/02 09:19:51;;;;;;;25.63;21.45;;;;;;;18.66;74.51;100281.50;4896548;29;20073;-87
2021/10/02 09:22:21;;;;;;;22.77;20.38;;;;;;;18.84;73.55;100276.50;4907354;29;20041;-87
2021/10/02 09:24:51;;;;;;;26.65;18.15;;;;;;;18.95;73.80;100281.72;4895432;29;20055;-85
2021/10/02 09:27:18;;;;;;;23.60;19.35;;;;;;;18.40;76.13;100278.38;4892990;29;20051;-87
2021/10/02 09:29:46;;;;;;;25.88;21.00;;;;;;;18.36;76.65;100284.88;4894712;29;20104;-85
2021/10/02 09:32:16;;;;;;;17.65;13.65;;;;;;;18.05;79.16;100281.22;4890950;29;20093;-86
2021/10/02 09:34:54;;;;;;;13.93;10.98;;;;;;;18.18;77.74;100286.38;4889572;29;20096;-85
2021/10/02 09:37:29;;;;;;;11.93;10.82;;;;;;;18.51;77.75;100282.78;4897731;29;20412;-84
2021/10/02 09:40:05;;;;;;;13.35;11.23;;;;;;;18.30;78.97;100273.00;4884966;29;20148;-84
2021/10/02 09:42:38;;;;;;;12.07;10.02;;;;;;;18.56;76.57;100277.94;4894122;29;20056;-86
2021/10/02 09:45:09;;;;;;;10.02;9.02;;;;;;;18.51;78.19;100274.84;4892980;29;20064;-86
2021/10/02 09:47:37;;;;;;;14.93;10.07;;;;;;;18.25;77.04;100277.00;4889839;29;20051;-85
2021/10/02 09:50:19;;;;;;;10.15;9.15;;;;;;;18.25;76.43;100271.72;4895720;29;20402;-85
2021/10/02 09:52:54;;;;;;;8.85;8.05;;;;;;;18.57;75.32;100266.41;4887747;29;20059;-87
2021/10/02 09:55:26;;;;;;;9.57;8.23;;;;;;;18.81;72.33;100282.06;4893962;29;20045;-87
2021/10/02 09:57:56;;;;;;;9.15;7.93;;;;;;;19.21;71.56;100270.75;4891768;29;20127;-85
2021/10/02 10:00:29;;;;;;;6.72;6.00;;;;;;;19.20;66.45;100264.63;4891428;29;20045;-83
2021/10/02 10:02:57;;;;;;;8.15;6.65;;;;;;;19.17;67.42;100270.16;4895509;29;20455;-84
2021/10/02 10:05:31;;;;;;;9.23;8.23;;;;;;;19.04;69.93;100267.75;4895304;29;20452;-83
2021/10/02 10:08:01;;;;;;;10.95;8.82;;;;;;;19.49;69.93;100282.41;4894946;29;20048;-83
2021/10/02 10:10:30;;;;;;;12.60;7.97;;;;;;;19.51;68.99;100278.69;4892333;29;20049;-81
2021/10/02 10:13:02;;;;;;;9.55;8.65;;;;;;;19.45;67.22;100275.75;4895392;29;20044;-81
2021/10/02 10:15:37;;;;;;;9.07;8.18;;;;;;;19.80;66.29;100277.97;4890465;29;20041;-81
2021/10/02 10:18:04;;;;;;;10.32;9.32;;;;;;;19.39;65.11;100277.13;4897751;29;20044;-81
2021/10/02 10:20:42;;;;;;;10.90;8.30;;;;;;;19.58;64.93;100269.25;4894776;29;20048;-82
2021/10/02 10:23:11;;;;;;;9.50;8.50;;;;;;;19.65;64.78;100272.22;4896596;29;20071;-82
2021/10/02 10:26:08;;;;;;;8.13;7.35;;;;;;;20.40;61.23;100261.09;4893840;29;20049;-80
2021/10/02 10:28:41;;;;;;;7.38;6.65;;;;;;;20.63;60.92;100266.13;4888312;29;20049;-82
2021/10/02 10:31:11;;;;;;;11.52;8.13;;;;;;;20.91;61.78;100270.53;4896193;29;20055;-82
2021/10/02 10:33:40;;;;;;;8.20;6.78;;;;;;;19.57;65.52;100279.97;4895737;29;20032;-84
2021/10/02 10:36:08;;;;;;;10.38;8.95;;;;;;;20.48;62.73;100272.81;4889437;29;20044;-82
2021/10/02 10:38:35;;;;;;;8.50;7.13;;;;;;;21.25;60.77;100267.34;4896177;29;20156;-82
2021/10/02 10:41:04;;;;;;;8.05;7.28;;;;;;;20.30;61.72;100264.69;4894937;29;20044;-83
2021/10/02 10:43:32;;;;;;;7.75;7.05;;;;;;;20.55;60.76;100269.44;4896741;29;20037;-81
2021/10/02 10:46:04;;;;;;;8.07;6.28;;;;;;;21.17;57.95;100277.88;4893996;29;20135;-82
2021/10/02 10:48:32;;;;;;;7.82;6.28;;;;;;;21.21;58.67;100273.13;4886189;29;20037;-83
2021/10/02 10:51:11;;;;;;;7.63;6.47;;;;;;;21.01;58.08;100274.97;4887450;29;20043;-81
2021/10/02 10:53:47;;;;;;;6.57;5.97;;;;;;;20.29;58.68;100278.88;4889927;29;20045;-80
2021/10/02 10:56:17;;;;;;;6.43;5.57;;;;;;;20.50;57.93;100266.38;4889251;29;20449;-82
2021/10/02 10:58:44;;;;;;;9.40;5.43;;;;;;;20.44;57.72;100271.38;4889429;29;20089;-80
2021/10/02 11:01:32;;;;;;;6.38;5.88;;;;;;;20.76;56.30;100271.09;4889096;29;20049;-78
2021/10/02 11:03:59;;;;;;;6.35;5.50;;;;;;;20.53;57.21;100270.59;4891237;29;20040;-82
2021/10/02 11:06:50;;;;;;;6.57;5.72;;;;;;;20.82;56.01;100276.66;4901421;29;20109;-82
2021/10/02 11:09:39;;;;;;;7.93;5.50;;;;;;;20.39;56.39;100263.84;4882301;29;20774;-81
2021/10/02 11:12:10;;;;;;;7.15;5.65;;;;;;;20.29;57.14;100257.72;4881135;29;20045;-81
2021/10/02 11:14:54;;;;;;;7.38;5.68;;;;;;;20.14;57.67;100270.53;4885845;29;20093;-82
2021/10/02 11:17:35;;;;;;;9.93;5.63;;;;;;;20.58;56.54;100263.06;4884817;29;20057;-81
2021/10/02 11:20:17;;;;;;;5.47;4.97;;;;;;;20.32;56.56;100262.75;4888696;29;20392;-79
2021/10/02 11:23:13;;;;;;;5.50;4.82;;;;;;;20.63;57.82;100269.59;4887171;29;20561;-80
2021/10/02 11:25:42;;;;;;;16.33;6.60;;;;;;;20.24;56.88;100274.03;4884509;29;20478;-78
2021/10/02 11:28:21;;;;;;;8.90;5.22;;;;;;;20.58;55.76;100268.34;4885498;29;20045;-85
2021/10/02 11:30:50;;;;;;;5.82;5.13;;;;;;;20.22;55.83;100275.13;4886455;29;20053;-80
2021/10/02 11:33:50;;;;;;;8.65;5.43;;;;;;;20.33;54.53;100264.41;4902085;29;20064;-86
2021/10/02 11:36:32;;;;;;;4.85;4.45;;;;;;;21.37;53.05;100266.25;4892358;29;20453;-79
2021/10/02 11:39:24;;;;;;;6.03;5.22;;;;;;;21.85;51.16;100267.84;4889126;29;20545;-81
2021/10/02 11:41:54;;;;;;;6.80;6.13;;;;;;;21.39;52.31;100258.13;4887873;29;20040;-82
2021/10/02 11:44:38;;;;;;;7.47;6.78;;;;;;;21.13;53.25;100252.63;4889825;29;20037;-81
2021/10/02 11:47:23;;;;;;;6.93;6.22;;;;;;;21.03;53.80;100246.50;4890512;29;20128;-80
2021/10/02 11:50:12;;;;;;;7.93;6.18;;;;;;;20.37;54.61;100244.63;4884243;29;20847;-81
2021/10/02 11:52:42;;;;;;;7.55;6.63;;;;;;;20.90;53.46;100241.53;4909451;29;20053;-78
2021/10/02 11:55:34;;;;;;;6.40;5.43;;;;;;;21.42;52.75;100240.13;4891863;29;20041;-82
2021/10/02 11:58:07;;;;;;;7.07;6.03;;;;;;;22.23;52.04;100220.78;4896584;29;20052;-81
2021/10/02 12:00:44;;;;;;;8.93;6.68;;;;;;;21.56;51.28;100227.34;4894794;29;20051;-79
2021/10/02 12:03:13;;;;;;;5.90;5.40;;;;;;;21.75;50.88;100227.25;4892011;29;20047;-80
2021/10/02 12:05:42;;;;;;;5.50;4.78;;;;;;;22.65;49.16;100228.94;4889402;29;20147;-80
2021/10/02 12:08:09;;;;;;;7.07;6.38;;;;;;;21.68;50.11;100224.38;4890042;29;20047;-79
2021/10/02 12:10:55;;;;;;;8.13;6.60;;;;;;;21.41;51.47;100224.34;4884234;29;20065;-76
2021/10/02 12:13:33;;;;;;;7.60;5.18;;;;;;;20.73;53.83;100221.91;4891277;29;20047;-77
2021/10/02 12:16:03;;;;;;;5.57;4.93;;;;;;;21.29;52.06;100215.72;4886351;29;20100;-84
2021/10/02 12:18:45;;;;;;;;;;;;;;;20.79;53.32;100208.09;4885724;29;20523;-82
2021/10/02 12:21:27;;;;;;;6.82;6.13;;;;;;;20.71;53.49;100210.59;4889630;29;19923;-81
2021/10/02 12:24:17;;;;;;;15.23;5.97;;;;;;;21.15;52.71;100205.63;4889907;29;20056;-85
2021/10/02 12:27:06;;;;;;;5.95;5.45;;;;;;;21.21;52.69;100210.31;4888854;29;20468;-80
2021/10/02 12:29:37;;;;;;;10.27;5.88;;;;;;;21.20;52.52;100206.00;4890397;29;20107;-82